logo
Search for airport 
image banner adimage banner adimage banner ad
image banner ad

RKTU - Cheongju / International

Located in Cheongju, Korea, Republic of

ICAO - RKTU, IATA - CJJ

Data provided by Airmate  

General information

Coordinates: N36°42'59" E127°29'57"
Elevation is 192 feet MSL.
Magnetic variation is -9° East
View others Airports in Chungcheongbugdo

Operational data

Special qualification required
Current time UTC:
Current local time:
Weather
METAR: RKTU 170500Z 03003KT 9000 NSC 20/07 Q1011
TAF: TAF RKTU 170500Z 1706/1812 30006KT 9000 NSC TN06/1721Z TX25/1806Z BECMG 1717/1718 4800 BR SCT030 BECMG 1800/1801 NSW
View NOTAMs / SUP AIP / TFR affecting this airport [VIEW]
Communications frequencies: [VIEW]

Runways:

RWY identifierQFULength (ft)Width (ft)SurfaceLDA (ft)
06R52°9003148CON
24L232°9003148CON
06L52°9003197CON
24R232°9003197CON

Airport contact information

Address: Cheongju Korea, Republic of

Satellite view of RKTU